Terminal Aerodrome Forecast
Issued by NWS Omaha/Valley, NE

Home | Current Version | Previous Version | Graphics & Text | Print | Product List | Glossary On
Versions: 1 2 3 4 5 6 7 8 9 10 11 12 13 14 15 16 17 18 19 20 21 22 23 24 25 26 27 28 29 30
000
FTUS43 KOAX 231251 AAA
TAFOFK
TAF AMD
KOFK 231251Z 2313/2412 16010KT P6SM -RA OVC060
      TEMPO 2313/2315 5SM -RA OVC040
     FM231500 16015KT P6SM -SHRA SCT015 OVC035
      TEMPO 2315/2318 4SM -SHRA BR OVC025
     FM231800 16015G22KT P6SM OVC050
     FM232300 16009KT P6SM BKN050 PROB30 2400/2406 P6SM -RA OVC040=

USA.gov is the U.S. government's official web portal to all federal, state and local government web resources and services.